Time;durP1;ratioP1;P1;durP2;ratioP2;P2;SDS_P1;SDS_P2;PMS_P1;PMS_P2;Temp;Humidity;BMP_temperature;BMP_pressure;BME280_temperature;BME280_humidity;BME280_pressure;Samples;Min_cycle;Max_cycle;Signal;HPM_P1;HPM_P2
2023/03/16 04:01:05;;;;;;;26.33;17.67;;;-1.70;99.90;;;;;;5593161;23;20752;-75
2023/03/16 04:03:31;;;;;;;21.47;17.10;;;-1.70;99.90;;;;;;4941889;29;20194;-75
2023/03/16 04:05:57;;;;;;;26.17;18.30;;;-1.70;99.90;;;;;;4927385;29;20643;-75
2023/03/16 04:08:22;;;;;;;21.77;17.20;;;-1.70;99.90;;;;;;4924257;29;20187;-75
2023/03/16 04:10:48;;;;;;;25.60;16.73;;;-1.70;99.90;;;;;;4922916;29;20203;-75
2023/03/16 04:13:14;;;;;;;24.67;18.20;;;-1.70;99.90;;;;;;4911922;29;20216;-75
2023/03/16 04:15:40;;;;;;;23.97;17.43;;;-1.80;99.90;;;;;;4944422;23;20293;-75
2023/03/16 04:18:05;;;;;;;23.37;16.93;;;-1.70;99.90;;;;;;4931803;29;20623;-76
2023/03/16 04:20:31;;;;;;;25.13;17.37;;;-1.70;99.90;;;;;;4915563;29;20179;-76
2023/03/16 04:22:57;;;;;;;20.27;15.90;;;-1.70;99.90;;;;;;4916550;29;20601;-74
2023/03/16 04:25:29;;;;;;;21.67;16.70;;;-1.70;99.90;;;;;;4915136;29;20204;-75
2023/03/16 04:27:55;;;;;;;22.23;16.97;;;-1.60;99.90;;;;;;4918617;29;20186;-77
2023/03/16 04:30:24;;;;;;;24.40;17.27;;;-1.60;99.90;;;;;;4914605;29;20258;-76
2023/03/16 04:32:51;;;;;;;20.97;16.97;;;-1.60;99.90;;;;;;4914925;29;20211;-76
2023/03/16 04:35:17;;;;;;;20.97;16.73;;;-1.60;99.90;;;;;;4914616;29;20228;-76
2023/03/16 04:37:43;;;;;;;20.97;16.27;;;-1.70;99.90;;;;;;4914405;29;20238;-76
2023/03/16 04:40:15;;;;;;;23.23;17.60;;;-1.60;99.90;;;;;;4915699;29;20599;-76
2023/03/16 04:42:43;;;;;;;20.23;16.17;;;-1.60;99.90;;;;;;4915214;29;20277;-77
2023/03/16 04:45:09;;;;;;;22.87;16.43;;;-1.60;99.90;;;;;;4915022;29;20709;-76
2023/03/16 04:47:36;;;;;;;23.53;17.30;;;-1.60;99.90;;;;;;4917094;29;20576;-77
2023/03/16 04:50:03;;;;;;;23.17;16.40;;;-1.50;99.90;;;;;;4912947;29;20183;-76
2023/03/16 04:52:29;;;;;;;30.83;16.40;;;-1.50;99.90;;;;;;4921946;29;20729;-76
2023/03/16 04:54:55;;;;;;;20.23;16.87;;;-1.60;99.90;;;;;;4914600;29;20289;-77
2023/03/16 04:57:21;;;;;;;26.30;19.57;;;-1.50;99.90;;;;;;4915541;29;20287;-76
2023/03/16 04:59:47;;;;;;;21.20;16.80;;;-1.50;99.90;;;;;;4914057;29;20183;-76
2023/03/16 05:02:13;;;;;;;23.43;16.90;;;-1.50;99.90;;;;;;4914684;29;20183;-76
2023/03/16 05:04:39;;;;;;;22.60;16.20;;;-1.50;99.90;;;;;;4914504;29;20297;-76
2023/03/16 05:07:05;;;;;;;27.17;18.77;;;-1.50;99.90;;;;;;4915327;29;20592;-76
2023/03/16 05:09:31;;;;;;;24.23;18.60;;;-1.50;99.90;;;;;;4913871;29;20259;-76
2023/03/16 05:11:57;;;;;;;23.93;17.87;;;-1.50;99.90;;;;;;4914966;29;20187;-76
2023/03/16 05:14:23;;;;;;;21.93;16.37;;;-1.60;99.90;;;;;;4914632;29;20731;-75
2023/03/16 05:16:48;;;;;;;23.43;18.70;;;-1.60;99.90;;;;;;4915449;29;20286;-76
2023/03/16 05:19:14;;;;;;;22.43;16.47;;;-1.50;99.90;;;;;;4915047;29;20195;-76
2023/03/16 05:21:40;;;;;;;22.60;17.87;;;-1.60;99.90;;;;;;4915125;29;20191;-76
2023/03/16 05:24:06;;;;;;;24.20;18.30;;;-1.50;99.90;;;;;;4913925;29;20235;-75
2023/03/16 05:26:32;;;;;;;24.90;18.53;;;-1.50;99.90;;;;;;4915052;29;20216;-76
2023/03/16 05:28:59;;;;;;;24.67;18.23;;;-1.40;99.90;;;;;;4914622;29;20659;-76
2023/03/16 05:31:31;;;;;;;20.00;16.90;;;-1.50;99.90;;;;;;4914157;29;20271;-74
2023/03/16 05:33:57;;;;;;;24.80;17.90;;;-1.40;99.90;;;;;;4915157;29;20191;-65
2023/03/16 05:36:23;;;;;;;21.97;17.03;;;-1.30;99.90;;;;;;4914845;29;20246;-65
2023/03/16 05:38:50;;;;;;;24.57;18.70;;;-1.30;99.90;;;;;;4914799;29;20190;-64
2023/03/16 05:41:17;;;;;;;28.07;19.43;;;-1.30;99.90;;;;;;4915132;29;20194;-65
2023/03/16 05:43:46;;;;;;;26.10;21.53;;;-1.30;99.90;;;;;;4914969;29;20183;-71
2023/03/16 05:46:12;;;;;;;25.13;20.37;;;-1.20;99.90;;;;;;4926790;29;20245;-68
2023/03/16 05:48:38;;;;;;;23.77;18.73;;;-1.20;99.90;;;;;;4932726;29;20222;-69
2023/03/16 05:51:04;;;;;;;22.50;17.40;;;-1.20;99.90;;;;;;4933281;29;20182;-68
2023/03/16 05:53:31;;;;;;;24.73;17.50;;;-1.20;99.90;;;;;;4933032;29;20182;-68
2023/03/16 05:55:58;;;;;;;23.03;18.93;;;-1.10;99.90;;;;;;4933847;29;20211;-69
2023/03/16 05:58:23;;;;;;;24.67;18.37;;;-1.10;99.90;;;;;;4933399;29;20326;-68
2023/03/16 06:00:49;;;;;;;22.73;17.33;;;-1.00;99.90;;;;;;4933548;29;20269;-67
2023/03/16 06:03:15;;;;;;;25.67;18.40;;;-1.00;99.90;;;;;;4933735;29;20276;-68
2023/03/16 06:05:42;;;;;;;26.30;19.53;;;-1.00;99.90;;;;;;4933269;29;20322;-68
2023/03/16 06:08:08;;;;;;;25.17;18.83;;;-1.00;99.90;;;;;;4933470;29;20206;-68
2023/03/16 06:10:35;;;;;;;26.73;19.23;;;-0.90;99.90;;;;;;4932062;29;20196;-66
2023/03/16 06:13:01;;;;;;;30.20;20.70;;;-0.80;99.90;;;;;;4933764;29;20286;-65
2023/03/16 06:15:29;;;;;;;23.37;19.30;;;-0.70;99.90;;;;;;4937366;29;20226;-66
2023/03/16 06:17:55;;;;;;;25.37;19.50;;;-0.60;99.90;;;;;;4937536;29;20663;-65
2023/03/16 06:20:21;;;;;;;28.13;20.60;;;-0.50;99.90;;;;;;4936715;29;20193;-66
2023/03/16 06:22:47;;;;;;;26.83;19.47;;;-0.40;99.90;;;;;;4937265;29;20186;-66
2023/03/16 06:25:13;;;;;;;28.27;19.00;;;-0.30;99.90;;;;;;4935573;29;20715;-66
2023/03/16 06:27:39;;;;;;;22.67;16.43;;;-0.20;99.90;;;;;;4936684;29;20179;-65
2023/03/16 06:30:07;;;;;;;27.40;19.33;;;-0.10;99.90;;;;;;4936386;29;20185;-69
2023/03/16 06:32:34;;;;;;;28.30;20.40;;;-0.10;99.90;;;;;;4953460;29;20194;-68
2023/03/16 06:35:02;;;;;;;25.87;18.60;;;0.00;99.90;;;;;;4955962;28;20268;-69
2023/03/16 06:37:28;;;;;;;25.70;18.67;;;0.00;99.90;;;;;;4955093;29;20212;-69
2023/03/16 06:39:54;;;;;;;21.93;17.57;;;0.10;99.90;;;;;;4954837;28;20546;-69
2023/03/16 06:42:20;;;;;;;23.77;18.07;;;0.10;99.90;;;;;;4956258;28;20189;-69
2023/03/16 06:44:46;;;;;;;24.83;18.47;;;0.20;99.90;;;;;;4955981;28;20231;-69
2023/03/16 06:47:12;;;;;;;24.70;21.23;;;0.40;99.90;;;;;;4954943;29;20213;-68
2023/03/16 06:49:38;;;;;;;22.43;18.60;;;0.50;99.90;;;;;;4955697;28;20220;-69
2023/03/16 06:52:04;;;;;;;29.63;21.17;;;0.70;99.90;;;;;;4955868;28;20206;-69
2023/03/16 06:54:33;;;;;;;51.33;46.97;;;0.80;99.90;;;;;;4954542;29;20824;-68
2023/03/16 06:56:58;;;;;;;37.60;33.67;;;1.00;99.90;;;;;;4955920;28;20193;-68
2023/03/16 06:59:24;;;;;;;34.60;26.27;;;1.30;99.90;;;;;;4955348;28;20197;-68
2023/03/16 07:01:50;;;;;;;41.67;37.40;;;1.60;99.90;;;;;;4956126;29;20181;-67
2023/03/16 07:04:16;;;;;;;37.67;33.60;;;2.00;99.90;;;;;;4955766;28;20198;-68
2023/03/16 07:06:42;;;;;;;35.27;31.77;;;2.40;99.90;;;;;;4955850;28;20312;-68
2023/03/16 07:09:08;;;;;;;48.23;43.97;;;2.70;99.90;;;;;;4954264;29;20707;-68
2023/03/16 07:11:34;;;;;;;29.87;23.60;;;3.20;99.90;;;;;;4955579;29;20218;-68
2023/03/16 07:14:00;;;;;;;31.53;28.80;;;3.70;99.90;;;;;;4955576;28;20313;-68
2023/03/16 07:16:26;;;;;;;18.90;16.70;;;4.20;99.90;;;;;;4955597;29;20193;-68
2023/03/16 07:18:52;;;;;;;18.70;16.80;;;4.90;99.90;;;;;;4955352;28;20177;-68
2023/03/16 07:21:18;;;;;;;21.63;19.23;;;5.50;99.90;;;;;;4955619;28;20688;-69
2023/03/16 07:23:44;;;;;;;17.60;15.93;;;5.90;99.90;;;;;;4954522;29;20186;-69
2023/03/16 07:26:10;;;;;;;23.43;21.53;;;6.10;99.90;;;;;;4954474;28;20214;-70
2023/03/16 07:28:37;;;;;;;15.37;13.87;;;5.80;99.90;;;;;;4954130;29;20186;-69
2023/03/16 07:31:04;;;;;;;15.87;13.50;;;5.90;99.90;;;;;;4955630;28;20229;-70
2023/03/16 07:33:33;;;;;;;15.43;12.67;;;6.00;99.90;;;;;;4955720;28;20600;-69
2023/03/16 07:36:03;;;;;;;17.93;16.23;;;6.10;99.90;;;;;;4956082;28;20685;-70
2023/03/16 07:38:31;;;;;;;14.73;13.23;;;6.10;99.90;;;;;;4955758;28;20276;-69
2023/03/16 07:40:58;;;;;;;16.20;14.60;;;5.90;99.90;;;;;;4954436;29;20200;-68
2023/03/16 07:43:24;;;;;;;10.27;9.23;;;5.80;99.90;;;;;;4954471;29;20642;-69
2023/03/16 07:45:50;;;;;;;21.60;14.53;;;5.60;99.90;;;;;;4955316;28;20313;-70
2023/03/16 07:48:17;;;;;;;15.83;14.23;;;5.50;99.90;;;;;;4954107;29;20177;-69
2023/03/16 07:50:43;;;;;;;12.43;10.93;;;5.50;99.90;;;;;;4953693;29;20642;-69
2023/03/16 07:53:09;;;;;;;13.63;12.20;;;5.50;99.90;;;;;;4955077;28;20651;-69
2023/03/16 07:55:35;;;;;;;14.60;11.93;;;5.60;99.90;;;;;;4955078;28;20206;-69
2023/03/16 07:58:03;;;;;;;14.07;12.67;;;5.40;99.90;;;;;;4953730;29;20221;-70
2023/03/16 08:00:29;;;;;;;11.00;10.00;;;5.70;99.90;;;;;;4953426;29;20193;-70
2023/03/16 08:02:56;;;;;;;13.67;11.17;;;6.10;99.90;;;;;;4953829;29;20189;-69
2023/03/16 08:05:22;;;;;;;13.63;12.07;;;6.30;99.90;;;;;;4955091;29;20284;-70
2023/03/16 08:07:48;;;;;;;12.33;10.93;;;6.40;99.90;;;;;;4953679;29;20306;-69
2023/03/16 08:10:14;;;;;;;13.40;12.10;;;6.60;99.90;;;;;;4954485;29;20718;-69
2023/03/16 08:12:40;;;;;;;15.37;12.10;;;6.70;99.90;;;;;;4954696;28;20190;-69
2023/03/16 08:15:07;;;;;;;13.20;11.93;;;6.90;99.90;;;;;;4953482;29;20304;-69
2023/03/16 08:17:33;;;;;;;14.17;10.20;;;7.10;99.90;;;;;;4954599;28;20174;-69
2023/03/16 08:19:59;;;;;;;13.73;12.43;;;7.00;99.90;;;;;;4954216;28;20189;-69
2023/03/16 08:22:25;;;;;;;18.73;11.53;;;7.30;99.90;;;;;;4954544;28;20573;-70
2023/03/16 08:24:51;;;;;;;10.50;9.40;;;7.30;99.90;;;;;;4953393;29;20632;-69
2023/03/16 08:27:19;;;;;;;9.67;8.77;;;7.40;99.90;;;;;;4953383;29;20221;-70
2023/03/16 08:29:45;;;;;;;13.80;12.50;;;7.60;99.90;;;;;;4953213;29;20186;-69
2023/03/16 08:32:11;;;;;;;13.90;12.67;;;7.50;99.90;;;;;;4954508;28;20193;-69
2023/03/16 08:34:38;;;;;;;15.27;13.30;;;7.70;99.90;;;;;;4953196;29;20565;-70
2023/03/16 08:37:05;;;;;;;17.60;16.00;;;7.70;99.90;;;;;;4954507;28;20612;-69
2023/03/16 08:39:32;;;;;;;19.70;18.00;;;7.90;99.90;;;;;;4952864;29;20185;-70
2023/03/16 08:41:58;;;;;;;25.57;23.47;;;8.00;99.90;;;;;;4953076;29;20557;-69
2023/03/16 08:44:25;;;;;;;24.23;22.23;;;8.20;99.90;;;;;;4954113;28;20293;-70
2023/03/16 08:46:51;;;;;;;19.60;18.20;;;8.30;99.90;;;;;;4952787;29;20220;-69
2023/03/16 08:49:19;;;;;;;10.53;9.53;;;8.60;99.90;;;;;;4952945;29;20252;-70
2023/03/16 08:51:45;;;;;;;10.67;9.67;;;8.80;99.90;;;;;;4957531;29;20178;-70
2023/03/16 08:54:11;;;;;;;11.20;9.27;;;8.50;99.90;;;;;;4956382;29;20270;-70
2023/03/16 08:56:37;;;;;;;12.27;11.07;;;8.60;99.90;;;;;;4955068;29;20273;-69
2023/03/16 08:59:02;;;;;;;11.97;10.83;;;8.70;99.90;;;;;;4952607;29;20241;-69
2023/03/16 09:01:28;;;;;;;12.70;11.40;;;9.10;99.90;;;;;;4953644;28;20194;-70
2023/03/16 09:03:54;;;;;;;7.20;6.57;;;9.50;99.90;;;;;;4952712;29;20190;-69
2023/03/16 09:06:21;;;;;;;7.13;6.00;;;9.60;99.90;;;;;;4953757;28;20305;-69
2023/03/16 09:08:47;;;;;;;9.30;8.40;;;9.20;99.90;;;;;;4953490;28;20190;-69
2023/03/16 09:11:16;;;;;;;8.70;7.80;;;9.00;99.90;;;;;;4952467;29;20182;-69
2023/03/16 09:13:43;;;;;;;10.57;8.23;;;9.10;99.90;;;;;;4952554;29;20209;-69
2023/03/16 09:16:11;;;;;;;7.03;6.43;;;9.10;99.90;;;;;;4953494;28;20755;-69
2023/03/16 09:18:37;;;;;;;8.80;7.93;;;9.00;99.90;;;;;;4953347;29;20182;-69
2023/03/16 09:21:05;;;;;;;8.47;7.63;;;9.20;99.90;;;;;;4953566;28;20185;-70
2023/03/16 09:23:33;;;;;;;9.80;8.97;;;9.70;99.90;;;;;;4953585;28;20201;-69
2023/03/16 09:26:01;;;;;;;12.07;10.93;;;10.00;99.90;;;;;;4953314;28;20217;-69
2023/03/16 09:28:28;;;;;;;13.93;12.93;;;10.50;99.90;;;;;;4953173;28;20186;-69
2023/03/16 09:30:55;;;;;;;15.27;13.87;;;10.30;99.90;;;;;;4953526;28;20657;-69
2023/03/16 09:33:23;;;;;;;13.77;12.57;;;10.00;99.90;;;;;;4952272;29;20237;-70
2023/03/16 09:35:50;;;;;;;13.13;12.30;;;9.80;99.90;;;;;;4952167;29;20210;-69
2023/03/16 09:38:17;;;;;;;14.97;13.97;;;9.70;99.90;;;;;;4953252;28;20567;-69
2023/03/16 09:40:46;;;;;;;13.97;12.93;;;10.40;99.90;;;;;;4952030;29;20192;-69
2023/03/16 09:43:23;;;;;;;9.90;9.00;;;10.90;99.90;;;;;;4952064;29;20277;-69
2023/03/16 09:46:07;;;;;;;7.90;7.20;;;11.60;99.90;;;;;;4953299;28;20253;-70
2023/03/16 09:48:36;;;;;;;9.43;8.50;;;12.00;99.90;;;;;;4951442;29;20641;-70
2023/03/16 09:51:07;;;;;;;8.63;7.87;;;11.70;99.90;;;;;;4952908;28;20276;-69
2023/03/16 09:53:39;;;;;;;7.90;7.20;;;11.80;99.90;;;;;;4953221;28;20272;-69
2023/03/16 10:00:05;;;;;;;9.70;8.53;;;11.20;99.90;;;;;;4952816;29;20176;-69
2023/03/16 10:06:13;;;;;;;6.77;6.33;;;10.60;99.90;;;;;;4953128;29;20236;-70
2023/03/16 10:08:52;;;;;;;10.47;7.47;;;10.60;99.90;;;;;;4951513;29;20197;-69
2023/03/16 10:11:29;;;;;;;9.73;8.37;;;10.60;99.90;;;;;;4952976;29;20212;-70
2023/03/16 10:14:24;;;;;;;8.43;7.10;;;10.70;99.90;;;;;;4951755;29;20188;-70
2023/03/16 10:16:59;;;;;;;12.50;8.80;;;11.00;99.90;;;;;;4955701;23;20372;-70
2023/03/16 10:19:37;;;;;;;7.20;6.70;;;11.10;99.90;;;;;;4933014;29;20196;-69
2023/03/16 10:22:19;;;;;;;6.83;6.33;;;11.50;99.90;;;;;;4932848;29;20201;-70
2023/03/16 10:25:03;;;;;;;6.60;6.00;;;12.00;99.90;;;;;;4932985;29;20187;-70
2023/03/16 10:27:31;;;;;;;7.87;7.20;;;12.20;99.90;;;;;;4915242;29;20221;-69
2023/03/16 10:30:00;;;;;;;7.80;7.10;;;12.20;99.90;;;;;;4928656;29;20190;-70
2023/03/16 10:32:31;;;;;;;8.03;7.27;;;12.30;99.90;;;;;;4922441;29;20183;-69
2023/03/16 10:35:10;;;;;;;7.50;6.73;;;12.00;99.90;;;;;;4913808;29;20192;-69
2023/03/16 10:37:37;;;;;;;7.30;6.70;;;12.20;99.90;;;;;;4914873;29;20287;-70
2023/03/16 10:40:08;;;;;;;6.90;6.40;;;12.50;99.90;;;;;;4913158;29;20664;-69
2023/03/16 10:42:35;;;;;;;8.13;7.47;;;12.60;99.90;;;;;;4914809;29;20246;-70
2023/03/16 10:45:02;;;;;;;7.40;5.87;;;12.90;99.90;;;;;;4914674;29;20211;-70
2023/03/16 10:47:31;;;;;;;7.30;6.70;;;13.20;99.70;;;;;;4914751;29;20651;-70
2023/03/16 10:49:57;;;;;;;7.53;6.07;;;13.20;99.70;;;;;;4913244;29;20183;-69
2023/03/16 10:52:42;;;;;;;6.67;6.07;;;13.10;98.30;;;;;;4914450;29;20187;-69
2023/03/16 10:55:25;;;;;;;7.40;5.87;;;12.80;98.00;;;;;;4914646;29;20230;-69
2023/03/16 10:57:54;;;;;;;7.00;6.33;;;12.80;98.00;;;;;;4913713;29;20246;-70
2023/03/16 11:00:29;;;;;;;7.77;7.17;;;12.80;98.10;;;;;;4915423;29;20522;-70
2023/03/16 11:02:58;;;;;;;8.17;7.57;;;13.10;97.60;;;;;;4918200;29;20234;-70
2023/03/16 11:05:32;;;;;;;7.97;7.37;;;13.00;97.40;;;;;;4918023;29;20222;-69
2023/03/16 11:08:19;;;;;;;10.17;9.23;;;13.20;97.50;;;;;;4918062;29;20183;-69
2023/03/16 11:10:53;;;;;;;7.60;6.90;;;12.70;97.30;;;;;;4917837;29;20278;-69
2023/03/16 11:13:20;;;;;;;8.07;7.47;;;12.90;98.10;;;;;;4917916;29;20218;-70
2023/03/16 11:16:24;;;;;;;9.03;8.43;;;13.20;96.90;;;;;;4917504;29;20218;-70
2023/03/16 11:18:57;;;;;;;9.57;9.00;;;13.50;96.30;;;;;;4904642;29;20241;-69
2023/03/16 11:21:53;;;;;;;9.23;8.53;;;13.80;95.20;;;;;;4917625;29;20285;-69
2023/03/16 11:24:51;;;;;;;7.33;6.80;;;14.00;95.10;;;;;;4917553;29;20191;-69
2023/03/16 11:27:28;;;;;;;6.20;5.90;;;14.00;93.80;;;;;;4901246;29;20254;-69
2023/03/16 11:30:27;;;;;;;7.00;6.47;;;13.90;93.70;;;;;;4917200;29;20669;-69
2023/03/16 11:32:54;;;;;;;8.63;8.13;;;13.60;94.40;;;;;;4883479;29;20199;-70
2023/03/16 11:35:31;;;;;;;6.97;6.47;;;14.00;94.00;;;;;;4917279;29;20290;-69
2023/03/16 11:38:09;;;;;;;9.00;8.40;;;14.90;92.20;;;;;;4917033;29;20194;-70
2023/03/16 11:40:52;;;;;;;14.90;14.10;;;15.40;91.70;;;;;;4916536;29;20791;-71
2023/03/16 11:43:46;;;;;;;13.20;12.33;;;15.70;89.70;;;;;;4916975;29;20194;-71
2023/03/16 11:46:22;;;;;;;12.90;12.20;;;15.50;88.90;;;;;;4916650;29;20226;-71
2023/03/16 11:49:29;;;;;;;8.40;7.63;;;15.90;89.40;;;;;;4916444;29;20694;-70
2023/03/16 11:52:16;;;;;;;6.83;6.33;;;16.00;84.90;;;;;;4897437;29;20352;-70
2023/03/16 11:55:11;;;;;;;9.13;8.50;;;15.30;84.40;;;;;;4915236;29;20274;-71
2023/03/16 11:58:00;;;;;;;10.17;9.40;;;15.20;85.70;;;;;;4915485;29;20338;-71
2023/03/16 12:00:26;;;;;;;8.53;7.93;;;15.70;84.40;;;;;;4916200;29;20179;-71
2023/03/16 12:03:29;;;;;;;6.67;6.07;;;16.10;82.40;;;;;;4917162;29;20183;-70
2023/03/16 12:06:04;;;;;;;5.50;5.10;;;16.30;80.20;;;;;;4916428;29;20226;-71
2023/03/16 12:08:52;;;;;;;5.97;5.43;;;16.50;80.00;;;;;;4915954;29;20178;-71
2023/03/16 12:11:29;;;;;;;5.80;5.40;;;16.80;79.30;;;;;;4916617;29;20525;-71
2023/03/16 12:14:25;;;;;;;5.67;5.23;;;17.60;75.90;;;;;;4917112;29;20191;-71
2023/03/16 12:16:58;;;;;;;7.77;7.27;;;18.10;73.60;;;;;;4915830;29;20226;-71
2023/03/16 12:19:42;;;;;;;8.70;8.20;;;18.00;69.80;;;;;;4916449;29;20226;-71
2023/03/16 12:22:22;;;;;;;9.27;8.67;;;17.90;69.50;;;;;;4915524;29;20190;-70
2023/03/16 12:24:48;;;;;;;6.10;5.70;;;17.30;69.50;;;;;;4914913;29;20441;-70
2023/03/16 12:27:21;;;;;;;7.10;6.80;;;17.20;72.70;;;;;;4915071;29;20214;-71
2023/03/16 12:30:26;;;;;;;11.30;10.70;;;17.60;70.20;;;;;;4931773;29;20187;-71
2023/03/16 12:33:12;;;;;;;9.30;8.80;;;17.80;68.10;;;;;;4915003;29;20194;-71
2023/03/16 12:35:56;;;;;;;10.33;9.73;;;17.90;66.90;;;;;;4914548;29;20206;-71
2023/03/16 12:38:36;;;;;;;11.07;10.40;;;17.60;65.70;;;;;;4915511;29;20226;-70
2023/03/16 12:41:27;;;;;;;10.37;9.67;;;17.40;66.60;;;;;;4916574;29;20612;-71
2023/03/16 12:44:17;;;;;;;11.07;10.17;;;17.80;68.20;;;;;;4916503;29;20194;-70
2023/03/16 12:47:02;;;;;;;9.27;8.47;;;17.90;65.80;;;;;;4915000;29;20290;-70
2023/03/16 12:49:32;;;;;;;9.40;8.77;;;18.60;62.80;;;;;;4915877;29;20201;-70
2023/03/16 12:52:01;;;;;;;10.73;10.03;;;18.40;63.80;;;;;;4916077;29;20187;-71
2023/03/16 12:54:28;;;;;;;13.20;12.37;;;19.00;59.40;;;;;;4916745;29;20619;-70
2023/03/16 12:57:08;;;;;;;17.10;16.07;;;19.50;57.00;;;;;;4915907;29;20199;-70
2023/03/16 12:59:41;;;;;;;16.87;15.67;;;18.90;57.60;;;;;;4915728;29;20183;-69
2023/03/16 13:02:18;;;;;;;16.63;15.60;;;18.60;58.10;;;;;;4916135;29;20195;-70
2023/03/16 13:04:46;;;;;;;13.77;13.03;;;18.70;58.60;;;;;;4915835;29;20187;-70
2023/03/16 13:07:20;;;;;;;12.73;11.93;;;19.90;57.80;;;;;;4915686;29;20584;-71
2023/03/16 13:10:07;;;;;;;8.17;7.63;;;20.90;55.80;;;;;;4915616;29;20211;-71
2023/03/16 13:12:36;;;;;;;6.60;6.10;;;20.80;53.90;;;;;;4915969;29;20179;-69
2023/03/16 13:15:22;;;;;;;7.00;6.70;;;19.80;54.00;;;;;;4914398;29;20361;-70
2023/03/16 13:18:01;;;;;;;9.73;9.13;;;18.00;55.70;;;;;;4915388;29;20250;-70
2023/03/16 13:20:47;;;;;;;9.53;9.03;;;16.70;59.20;;;;;;4915010;29;20662;-70
2023/03/16 13:23:17;;;;;;;9.90;9.43;;;16.90;60.20;;;;;;4914801;29;20194;-71
2023/03/16 13:25:56;;;;;;;11.27;10.67;;;17.30;59.40;;;;;;4913855;29;20327;-70
2023/03/16 13:28:28;;;;;;;11.03;10.53;;;17.20;59.40;;;;;;4915062;29;20643;-71
2023/03/16 13:30:53;;;;;;;11.00;10.27;;;16.60;61.60;;;;;;4920709;29;20183;-71
2023/03/16 13:33:25;;;;;;;13.17;12.37;;;16.80;60.20;;;;;;4916071;29;20373;-71
2023/03/16 13:35:55;;;;;;;11.70;11.00;;;17.10;59.40;;;;;;4915166;29;20211;-70
2023/03/16 13:38:26;;;;;;;11.40;10.80;;;18.20;57.30;;;;;;4914994;29;20238;-70
2023/03/16 13:40:55;;;;;;;11.93;11.30;;;18.20;57.50;;;;;;4915415;29;20194;-70
2023/03/16 13:43:27;;;;;;;13.07;12.27;;;18.50;57.10;;;;;;4915359;29;20553;-71
2023/03/16 13:45:54;;;;;;;10.67;9.90;;;18.60;57.50;;;;;;4915085;29;20223;-71
2023/03/16 13:48:20;;;;;;;10.87;10.30;;;18.70;56.40;;;;;;4913785;29;20205;-71
2023/03/16 13:50:57;;;;;;;9.97;9.47;;;18.90;56.20;;;;;;4914826;29;20235;-71
2023/03/16 13:53:27;;;;;;;9.40;8.80;;;18.90;55.50;;;;;;4915209;29;20282;-70
2023/03/16 13:55:55;;;;;;;10.03;9.43;;;18.00;56.00;;;;;;4915049;29;20211;-71
2023/03/16 13:58:33;;;;;;;12.70;12.00;;;17.10;58.20;;;;;;4913733;29;20238;-70
2023/03/16 14:01:02;;;;;;;12.13;11.43;;;16.10;60.90;;;;;;4913999;29;20570;-70
2023/03/16 14:03:41;;;;;;;9.43;8.83;;;15.60;62.30;;;;;;4915454;29;20182;-70
2023/03/16 14:06:24;;;;;;;10.83;10.03;;;15.20;64.60;;;;;;4914821;29;20226;-70
2023/03/16 14:08:53;;;;;;;10.30;9.60;;;15.20;63.00;;;;;;4913440;29;20183;-71
2023/03/16 14:11:19;;;;;;;10.53;9.80;;;15.10;65.30;;;;;;4914711;29;20182;-70
2023/03/16 14:13:53;;;;;;;10.40;9.60;;;15.20;64.80;;;;;;4914746;29;20768;-71
2023/03/16 14:16:20;;;;;;;10.13;9.63;;;15.00;65.90;;;;;;4913456;29;20763;-70
2023/03/16 14:18:50;;;;;;;12.47;11.83;;;14.50;66.80;;;;;;4914601;29;20573;-70
2023/03/16 14:21:23;;;;;;;9.17;8.13;;;13.80;68.90;;;;;;4913584;29;20560;-70
2023/03/16 14:23:56;;;;;;;7.23;6.70;;;13.50;72.10;;;;;;4915486;29;20663;-71
2023/03/16 14:26:24;;;;;;;7.97;7.37;;;13.60;71.50;;;;;;4926890;29;20254;-71
2023/03/16 14:29:15;;;;;;;8.17;7.57;;;13.80;70.40;;;;;;4922337;29;20187;-70
2023/03/16 14:31:41;;;;;;;8.73;8.03;;;13.90;70.40;;;;;;4910144;29;20202;-70
2023/03/16 14:34:25;;;;;;;9.93;7.53;;;14.10;70.50;;;;;;4915119;29;20183;-70
2023/03/16 14:36:51;;;;;;;9.90;9.10;;;14.50;71.60;;;;;;4918308;29;20240;-71
2023/03/16 14:39:26;;;;;;;9.57;8.97;;;14.80;69.50;;;;;;4918019;29;20187;-69
2023/03/16 14:41:52;;;;;;;10.53;9.93;;;15.00;69.10;;;;;;4918563;29;20207;-69
2023/03/16 14:44:22;;;;;;;13.20;12.30;;;15.20;68.90;;;;;;4917158;29;20334;-69
2023/03/16 14:46:48;;;;;;;12.07;11.40;;;14.90;68.80;;;;;;4918180;29;20688;-69
2023/03/16 14:49:24;;;;;;;10.70;10.07;;;14.90;68.20;;;;;;4918043;29;20186;-69
2023/03/16 14:51:52;;;;;;;9.40;8.70;;;14.40;70.90;;;;;;4918105;29;20194;-70
2023/03/16 14:54:23;;;;;;;7.90;7.30;;;14.30;71.70;;;;;;4917135;29;20550;-70
2023/03/16 14:56:51;;;;;;;7.53;6.97;;;14.30;71.60;;;;;;4916767;29;20222;-70
2023/03/16 14:59:17;;;;;;;6.33;5.67;;;14.00;71.70;;;;;;4917750;29;20198;-70
2023/03/16 15:01:44;;;;;;;7.40;5.80;;;14.00;71.90;;;;;;4918115;29;20194;-70
2023/03/16 15:04:17;;;;;;;6.40;6.00;;;14.40;71.90;;;;;;4918054;29;20226;-70
2023/03/16 15:06:44;;;;;;;7.50;6.53;;;14.60;70.10;;;;;;4916693;29;20246;-70
2023/03/16 15:09:36;;;;;;;7.73;7.20;;;14.70;70.10;;;;;;4917624;29;20544;-70
2023/03/16 15:12:02;;;;;;;8.03;7.43;;;14.80;69.30;;;;;;4917936;29;20219;-70
2023/03/16 15:17:12;;;;;;;7.30;6.80;;;14.40;70.80;;;;;;4917810;29;20187;-70
2023/03/16 15:19:38;;;;;;;7.50;6.67;;;14.20;71.00;;;;;;4916808;29;20206;-70
2023/03/16 15:22:05;;;;;;;6.33;5.83;;;13.80;70.80;;;;;;4917308;29;20183;-70
2023/03/16 15:24:32;;;;;;;5.93;5.53;;;13.60;71.40;;;;;;4917781;29;20184;-70
2023/03/16 15:26:58;;;;;;;6.43;5.97;;;13.40;72.70;;;;;;4916955;29;20226;-70
2023/03/16 15:29:24;;;;;;;5.90;5.40;;;13.20;72.30;;;;;;4928086;29;20664;-70
2023/03/16 15:31:50;;;;;;;6.30;5.80;;;13.00;73.00;;;;;;4918208;29;20285;-70
2023/03/16 15:34:15;;;;;;;5.90;5.47;;;13.00;73.60;;;;;;4916185;29;20230;-70
2023/03/16 15:36:42;;;;;;;6.13;5.60;;;13.10;74.10;;;;;;4916164;29;20306;-69
2023/03/16 15:39:21;;;;;;;5.93;5.53;;;13.20;73.70;;;;;;4916991;29;20195;-70
2023/03/16 15:41:47;;;;;;;5.67;5.17;;;13.20;73.00;;;;;;4917325;29;20723;-69
2023/03/16 15:44:13;;;;;;;6.00;5.50;;;13.00;73.40;;;;;;4917215;29;20187;-69
2023/03/16 15:46:39;;;;;;;6.30;5.70;;;13.00;74.10;;;;;;4916270;29;20692;-69
2023/03/16 15:49:05;;;;;;;5.47;5.07;;;13.00;73.90;;;;;;4916840;29;20183;-70
2023/03/16 15:51:31;;;;;;;5.50;5.00;;;12.90;74.10;;;;;;4917071;29;20183;-69
2023/03/16 15:54:07;;;;;;;5.10;4.70;;;12.80;75.00;;;;;;4917156;29;20215;-70
2023/03/16 15:56:39;;;;;;;5.27;4.77;;;12.80;74.50;;;;;;4917006;29;20214;-69
2023/03/16 15:59:07;;;;;;;4.83;4.53;;;12.80;74.90;;;;;;4916864;29;20190;-69
2023/03/16 16:01:44;;;;;;;4.70;4.50;;;12.80;74.20;;;;;;4915666;29;20190;-69
2023/03/16 16:04:16;;;;;;;5.33;4.93;;;12.80;74.90;;;;;;4917098;29;20300;-69
2023/03/16 16:06:42;;;;;;;4.93;4.63;;;12.90;74.30;;;;;;4916749;29;20222;-69
2023/03/16 16:09:09;;;;;;;5.67;5.17;;;12.80;74.10;;;;;;4915487;29;20597;-69
2023/03/16 16:11:35;;;;;;;5.13;4.83;;;12.80;75.10;;;;;;4916772;29;20183;-69
2023/03/16 16:14:01;;;;;;;5.40;5.00;;;12.80;74.90;;;;;;4917144;29;20202;-69
2023/03/16 16:16:29;;;;;;;5.40;4.90;;;12.80;74.80;;;;;;4947123;23;20250;-69
2023/03/16 16:18:55;;;;;;;5.17;4.77;;;12.80;75.30;;;;;;4934859;29;20222;-70
2023/03/16 16:21:27;;;;;;;5.50;5.20;;;12.80;76.20;;;;;;4934591;29;20598;-70
2023/03/16 16:23:54;;;;;;;6.20;5.90;;;12.60;76.60;;;;;;4934302;29;20186;-70
2023/03/16 16:26:26;;;;;;;6.90;6.40;;;12.50;77.90;;;;;;4923454;29;20246;-71
2023/03/16 16:28:52;;;;;;;8.37;7.77;;;12.30;77.80;;;;;;4915247;29;20283;-71
2023/03/16 16:31:21;;;;;;;10.83;10.10;;;12.30;78.50;;;;;;4915398;29;20187;-71
2023/03/16 16:33:48;;;;;;;14.80;13.40;;;12.20;79.80;;;;;;4916039;29;20190;-69
2023/03/16 16:36:17;;;;;;;11.73;10.83;;;12.10;79.60;;;;;;4916509;29;20210;-71
2023/03/16 16:38:44;;;;;;;10.57;9.97;;;12.00;80.10;;;;;;4916049;29;20187;-69
2023/03/16 16:41:22;;;;;;;10.77;9.80;;;11.90;80.30;;;;;;4916442;29;20671;-72
2023/03/16 16:43:50;;;;;;;10.90;10.30;;;11.80;80.90;;;;;;4916222;29;20608;-71
2023/03/16 16:46:27;;;;;;;8.97;8.37;;;11.70;81.50;;;;;;4915895;29;20262;-70
2023/03/16 16:49:14;;;;;;;7.07;6.53;;;11.60;82.00;;;;;;4915765;29;20178;-70
2023/03/16 16:51:40;;;;;;;6.17;5.63;;;11.50;82.70;;;;;;4915927;29;20286;-68
2023/03/16 16:54:23;;;;;;;5.13;4.77;;;11.40;83.30;;;;;;4914702;29;20714;-70
2023/03/16 16:56:52;;;;;;;6.33;5.30;;;11.30;83.80;;;;;;4915851;29;20206;-70
2023/03/16 16:59:21;;;;;;;5.80;5.40;;;11.10;84.60;;;;;;4914292;29;20617;-71
2023/03/16 17:01:56;;;;;;;6.70;6.20;;;11.10;85.30;;;;;;4916133;29;20190;-70
2023/03/16 17:04:26;;;;;;;6.30;5.87;;;11.00;85.80;;;;;;4914713;29;20186;-70
2023/03/16 17:06:56;;;;;;;7.60;7.20;;;10.90;86.80;;;;;;4915194;29;20309;-73